Courtenay, North Dakota
Current Conditions -  °F | °C
As of 10:56 PM on Wednesday 22 Oct 2014 (Local Time) from KJMS Reporting Station
Clear Clear  
Wind Chill: 39°   Ceiling: Unl
Heat Index: 43°   Visibility: 10mi
Dew Point: 40°   Wind: 6mph
Humidity: 89%   Direction: 200°SSW
Pressure: 29.89"   Gusts: NA
Location:  47.22°N, 98.57°W
Report Text: KJMS 230356Z AUTO 20005KT 10SM CLR 06/04 A2989 RMK AO2 SLP128 T00610044
Loading
Personal Weather Stations






























Interactive Weather Map
Tropical Storm Tracking
New forecast layout! Learn more

10-Day Weather Forecast

Advertisements
Track Severe Weather on mobile